Time;durP1;ratioP1;P1;durP2;ratioP2;P2;SDS_P1;SDS_P2;PMS_P1;PMS_P2;Temp;Humidity;BMP_temperature;BMP_pressure;BME280_temperature;BME280_humidity;BME280_pressure;Samples;Min_cycle;Max_cycle;Signal;HPM_P1;HPM_P2
2021/11/27 00:00:33;;;;;;;0.80;0.30;;;1.70;99.90;;;;;;20987513;28;20444;-49
2021/11/27 00:10:59;;;;;;;1.60;0.63;;;1.60;99.90;;;;;;20971055;28;20048;-49
2021/11/27 00:21:21;;;;;;;3.90;1.25;;;1.60;99.90;;;;;;20985855;28;20033;-49
2021/11/27 00:31:43;;;;;;;1.20;0.70;;;1.70;99.90;;;;;;20985108;28;20397;-50
2021/11/27 00:41:59;;;;;;;1.40;0.57;;;1.80;99.90;;;;;;20982163;28;20429;-51
2021/11/27 00:52:22;;;;;;;2.92;0.80;;;1.90;99.90;;;;;;20983568;28;20032;-50
2021/11/27 01:02:45;;;;;;;1.20;0.68;;;1.90;99.90;;;;;;20982655;28;20036;-50
2021/11/27 01:13:05;;;;;;;1.73;0.80;;;2.00;99.90;;;;;;20982755;28;20052;-53
2021/11/27 01:23:30;;;;;;;2.22;1.08;;;1.90;99.90;;;;;;20982432;28;20097;-52
2021/11/27 01:33:52;;;;;;;2.22;1.23;;;1.70;99.90;;;;;;20981915;28;20040;-56
2021/11/27 01:44:08;;;;;;;1.80;1.13;;;1.40;99.90;;;;;;20964905;28;20040;-54
2021/11/27 01:54:31;;;;;;;1.60;1.05;;;1.20;99.90;;;;;;20981043;28;20044;-55
2021/11/27 02:04:47;;;;;;;1.73;0.90;;;1.10;99.90;;;;;;20980419;28;20032;-53
2021/11/27 02:15:11;;;;;;;0.38;0.20;;;1.00;99.90;;;;;;20988198;28;20036;-54
2021/11/27 02:25:31;;;;;;;0.10;0.00;;;1.00;99.90;;;;;;20995166;28;20028;-53
2021/11/27 02:35:56;;;;;;;0.20;0.17;;;1.10;99.90;;;;;;20994112;28;20036;-56
2021/11/27 02:46:12;;;;;;;0.10;0.00;;;1.00;99.90;;;;;;20993839;28;20066;-58
2021/11/27 02:56:35;;;;;;;0.52;0.10;;;0.90;99.90;;;;;;20992961;28;20055;-57
2021/11/27 03:06:51;;;;;;;0.60;0.30;;;0.80;99.90;;;;;;20993220;28;20121;-56
2021/11/27 03:17:14;;;;;;;4.70;0.57;;;0.80;99.90;;;;;;20976656;28;20556;-55
2021/11/27 03:27:30;;;;;;;204.15;11.57;;;0.90;99.90;;;;;;20973255;28;20070;-54
2021/11/27 03:37:55;;;;;;;22.35;2.35;;;0.90;99.90;;;;;;20990232;28;20036;-52
2021/11/27 03:48:24;;;;;;;32.13;6.15;;;0.80;99.90;;;;;;20988540;28;20037;-50
2021/11/27 03:59:12;;;;;;;15.63;5.55;;;0.80;99.90;;;;;;20987707;28;20044;-51
2021/11/27 04:09:28;;;;;;;10.02;3.35;;;0.90;99.90;;;;;;20986100;28;20045;-46
2021/11/27 04:19:52;;;;;;;9.23;3.28;;;0.90;99.90;;;;;;20988819;28;20097;-48
2021/11/27 04:30:14;;;;;;;12.18;2.80;;;0.90;99.90;;;;;;20971469;28;20401;-50
2021/11/27 04:40:40;;;;;;;9.68;3.50;;;0.90;99.90;;;;;;20985724;28;20556;-49
2021/11/27 04:50:59;;;;;;;10.75;3.80;;;0.90;99.90;;;;;;20968166;28;20552;-49
2021/11/27 05:01:23;;;;;;;14.98;4.93;;;0.90;99.90;;;;;;20983155;28;20037;-50
2021/11/27 05:11:40;;;;;;;21.80;5.60;;;0.90;99.90;;;;;;20981675;28;20571;-53
2021/11/27 05:22:04;;;;;;;19.08;5.82;;;0.90;99.90;;;;;;20966451;28;20041;-47
2021/11/27 05:32:24;;;;;;;37.25;8.07;;;0.90;99.90;;;;;;20965201;28;20054;-52
2021/11/27 05:42:50;;;;;;;589.25;36.15;;;0.90;99.90;;;;;;20983179;28;20036;-48
2021/11/27 05:53:06;;;;;;;381.42;24.92;;;1.00;99.90;;;;;;20978160;28;20040;-52
2021/11/27 06:03:28;;;;;;;22.40;6.80;;;1.00;99.90;;;;;;20996684;28;20102;-48
2021/11/27 06:13:44;;;;;;;16.63;4.88;;;1.00;99.90;;;;;;20994628;28;20044;-51
2021/11/27 06:24:08;;;;;;;351.63;23.83;;;0.90;99.90;;;;;;20994928;28;20045;-52
2021/11/27 06:34:24;;;;;;;759.97;43.95;;;0.90;99.90;;;;;;20994215;28;20062;-53
2021/11/27 06:44:49;;;;;;;531.42;29.02;;;0.90;99.90;;;;;;20993536;28;20034;-51
2021/11/27 06:55:06;;;;;;;73.03;8.05;;;0.90;99.90;;;;;;20992727;28;20633;-54
2021/11/27 07:05:29;;;;;;;19.73;5.78;;;0.90;99.90;;;;;;20990756;28;20078;-52
2021/11/27 07:15:57;;;;;;;13.35;5.35;;;0.90;99.90;;;;;;20990701;28;20036;-54
2021/11/27 07:26:12;;;;;;;203.35;14.43;;;0.90;99.90;;;;;;20989989;28;20446;-50
2021/11/27 07:36:41;;;;;;;270.15;15.48;;;0.90;99.90;;;;;;20988907;28;20037;-54
2021/11/27 07:46:57;;;;;;;659.08;29.63;;;0.80;99.90;;;;;;20988161;28;20028;-50
2021/11/27 07:57:39;;;;;;;60.70;6.60;;;0.80;99.90;;;;;;20987327;28;20090;-50
2021/11/27 08:07:54;;;;;;;7.85;3.63;;;0.80;99.90;;;;;;20984775;28;20056;-54
2021/11/27 08:18:17;;;;;;;9.13;3.50;;;0.90;99.90;;;;;;20984597;28;20173;-51
2021/11/27 08:28:39;;;;;;;11.70;1.70;;;0.90;99.90;;;;;;20970064;28;20056;-49
2021/11/27 08:38:55;;;;;;;4.95;1.10;;;1.00;99.90;;;;;;20984094;28;20467;-51
2021/11/27 08:49:17;;;;;;;7.43;1.15;;;1.30;99.90;;;;;;20983542;28;20457;-52
2021/11/27 08:59:33;;;;;;;9.02;1.45;;;1.40;99.90;;;;;;20982888;28;20477;-52
2021/11/27 09:09:56;;;;;;;4.40;1.50;;;1.50;99.90;;;;;;20981525;28;20056;-51
2021/11/27 09:20:12;;;;;;;8.98;1.58;;;1.50;99.90;;;;;;20981033;28;20094;-54
2021/11/27 09:30:37;;;;;;;6.55;1.50;;;1.60;99.90;;;;;;20982155;28;20079;-52
2021/11/27 09:41:06;;;;;;;7.97;1.40;;;2.60;99.90;;;;;;20980853;28;20942;-49
2021/11/27 09:51:33;;;;;;;9.98;1.08;;;3.80;99.90;;;;;;20980218;28;20044;-53
2021/11/27 10:01:54;;;;;;;4.10;1.08;;;3.30;99.90;;;;;;20979745;28;20089;-48
2021/11/27 10:12:19;;;;;;;8.23;1.70;;;3.00;99.90;;;;;;20978380;28;20098;-50
2021/11/27 10:22:38;;;;;;;4.47;1.30;;;3.00;99.90;;;;;;20980350;28;20509;-50
2021/11/27 10:33:00;;;;;;;7.47;2.08;;;3.30;99.90;;;;;;20980586;28;20133;-54
2021/11/27 10:43:17;;;;;;;5.15;1.88;;;3.90;99.90;;;;;;20993693;28;20040;-49
2021/11/27 10:53:44;;;;;;;5.97;2.45;;;4.30;99.90;;;;;;20992489;28;20153;-54
2021/11/27 11:04:17;;;;;;;7.55;2.10;;;5.40;99.90;;;;;;20991924;28;20093;-51
2021/11/27 11:14:47;;;;;;;3.13;1.33;;;5.80;99.90;;;;;;20989826;28;20082;-51
2021/11/27 11:25:10;;;;;;;2.65;0.68;;;5.40;99.90;;;;;;20990280;28;20044;-51
2021/11/27 11:35:26;;;;;;;6.20;3.33;;;5.20;99.90;;;;;;20990156;28;20390;-49
2021/11/27 11:45:50;;;;;;;1.33;0.47;;;5.30;99.90;;;;;;20988299;28;20227;-49
2021/11/27 11:56:09;;;;;;;10.13;4.28;;;5.70;99.90;;;;;;20988452;28;20070;-48
2021/11/27 12:06:38;;;;;;;7.22;3.67;;;6.00;99.90;;;;;;20985759;28;20404;-53
2021/11/27 12:17:14;;;;;;;7.13;4.22;;;6.20;99.90;;;;;;20985269;28;20040;-51
2021/11/27 12:27:30;;;;;;;8.88;4.00;;;6.30;99.90;;;;;;20984846;28;20550;-51
2021/11/27 12:37:54;;;;;;;10.23;5.93;;;6.50;99.90;;;;;;20983509;28;20040;-51
2021/11/27 12:48:36;;;;;;;12.38;5.90;;;5.70;99.90;;;;;;20982567;28;20036;-51
2021/11/27 12:58:59;;;;;;;10.20;5.88;;;5.60;99.90;;;;;;20808183;28;20041;-52
2021/11/27 13:09:22;;;;;;;3.88;1.63;;;5.30;99.90;;;;;;20790505;28;20057;-52
2021/11/27 13:19:47;;;;;;;15.77;7.68;;;4.30;99.90;;;;;;20790949;28;20082;-49
2021/11/27 13:30:10;;;;;;;12.90;6.43;;;4.20;99.90;;;;;;20820932;28;20053;-49
2021/11/27 13:40:39;;;;;;;15.23;7.25;;;4.30;99.90;;;;;;20969325;28;20105;-51
2021/11/27 13:50:57;;;;;;;11.60;4.38;;;4.00;99.90;;;;;;20979660;28;20447;-51
2021/11/27 14:01:20;;;;;;;5.00;3.20;;;3.90;99.90;;;;;;20979975;28;20032;-52
2021/11/27 14:11:40;;;;;;;8.32;4.07;;;3.80;99.90;;;;;;20987747;28;20146;-50
2021/11/27 14:22:06;;;;;;;9.52;4.60;;;3.50;99.90;;;;;;20994787;28;20101;-49
2021/11/27 14:32:28;;;;;;;6.65;3.65;;;3.40;99.90;;;;;;20993663;28;20098;-52
2021/11/27 14:42:51;;;;;;;7.75;4.10;;;3.30;99.90;;;;;;20993251;28;20036;-48
2021/11/27 14:53:07;;;;;;;7.28;3.83;;;3.10;99.90;;;;;;20993063;28;20045;-54
2021/11/27 15:03:34;;;;;;;9.00;4.35;;;2.80;99.90;;;;;;20991460;28;20048;-49
2021/11/27 15:13:49;;;;;;;5.43;3.15;;;2.60;99.90;;;;;;20989445;28;20037;-54
2021/11/27 15:24:13;;;;;;;3.35;1.58;;;2.40;99.90;;;;;;20989203;28;20033;-52
2021/11/27 15:34:29;;;;;;;3.13;1.50;;;2.00;99.90;;;;;;20989005;28;20547;-52
2021/11/27 15:44:52;;;;;;;4.32;2.00;;;1.80;99.90;;;;;;20989844;28;20497;-55
2021/11/27 15:55:09;;;;;;;4.47;2.17;;;1.90;99.90;;;;;;20987389;28;20037;-53
2021/11/27 16:05:32;;;;;;;4.00;2.10;;;1.60;99.90;;;;;;20986597;28;20033;-49
2021/11/27 16:15:48;;;;;;;5.53;2.63;;;1.30;99.90;;;;;;20984100;28;20052;-50
2021/11/27 16:26:12;;;;;;;5.38;2.05;;;1.20;99.90;;;;;;20984843;28;20482;-50
2021/11/27 16:36:28;;;;;;;6.28;2.20;;;1.20;99.90;;;;;;20984269;28;20037;-49
2021/11/27 16:46:51;;;;;;;4.85;1.63;;;1.30;99.90;;;;;;20983566;28;20032;-51
2021/11/27 16:57:07;;;;;;;5.15;1.67;;;1.30;99.90;;;;;;20982790;28;20036;-53
2021/11/27 17:07:39;;;;;;;7.50;2.25;;;1.40;99.90;;;;;;20980805;28;20090;-52
2021/11/27 17:18:02;;;;;;;13.25;3.47;;;1.40;99.90;;;;;;20983228;28;20041;-51
2021/11/27 17:28:28;;;;;;;9.32;4.55;;;1.30;99.90;;;;;;20981652;28;20044;-51
2021/11/27 17:38:55;;;;;;;9.43;3.92;;;1.50;99.90;;;;;;20951196;28;20036;-52
2021/11/27 17:49:13;;;;;;;13.93;5.88;;;1.50;99.90;;;;;;20994977;28;20033;-51
2021/11/27 17:59:36;;;;;;;7.97;4.45;;;1.50;99.90;;;;;;20996990;28;20036;-50
2021/11/27 18:09:53;;;;;;;13.43;5.13;;;1.50;99.90;;;;;;20994581;28;20149;-50
2021/11/27 18:20:16;;;;;;;13.85;5.57;;;1.40;99.90;;;;;;20995279;28;20244;-52
2021/11/27 18:30:32;;;;;;;50.75;7.93;;;1.20;99.90;;;;;;20994177;28;20044;-56
2021/11/27 18:40:56;;;;;;;9.70;4.68;;;1.00;99.90;;;;;;20993157;28;20379;-53
2021/11/27 18:51:12;;;;;;;14.18;5.32;;;1.00;99.90;;;;;;20992255;28;20413;-51
2021/11/27 19:01:35;;;;;;;8.80;5.05;;;0.90;99.90;;;;;;20990238;28;20477;-54
2021/11/27 19:11:52;;;;;;;8.57;4.20;;;1.00;99.90;;;;;;20989543;28;20044;-55
2021/11/27 19:22:15;;;;;;;4.78;2.78;;;0.90;99.90;;;;;;20991248;28;20106;-51
2021/11/27 19:32:30;;;;;;;3.30;1.77;;;0.80;99.90;;;;;;20989439;28;20408;-52
2021/11/27 19:42:54;;;;;;;1.73;1.08;;;0.80;99.90;;;;;;20990134;28;20041;-53
2021/11/27 19:53:10;;;;;;;8.50;3.15;;;0.70;99.90;;;;;;20987312;28;20028;-55
2021/11/27 20:03:33;;;;;;;5.47;3.17;;;0.80;99.90;;;;;;20987582;28;20032;-52
2021/11/27 20:14:05;;;;;;;16.00;4.10;;;0.90;99.90;;;;;;20984942;28;20056;-55
2021/11/27 20:24:28;;;;;;;140.57;8.82;;;0.90;99.90;;;;;;20985336;28;20094;-57
2021/11/27 20:34:44;;;;;;;10.10;1.30;;;0.80;99.90;;;;;;20984798;28;20098;-58
2021/11/27 20:45:08;;;;;;;1.27;0.80;;;0.70;99.90;;;;;;19911918;28;10000590;-55
2021/11/27 20:55:24;;;;;;;1.08;0.52;;;0.70;99.90;;;;;;20618828;28;20388;-58
2021/11/27 21:05:47;;;;;;;0.85;0.40;;;0.70;99.90;;;;;;20559779;28;20038;-59
2021/11/27 21:16:03;;;;;;;2.42;1.20;;;0.80;99.90;;;;;;20571702;28;20126;-57
2021/11/27 21:26:27;;;;;;;962.72;44.45;;;0.70;99.90;;;;;;20573713;28;20039;-57
2021/11/27 21:36:44;;;;;;;1028.18;56.67;;;0.90;99.90;;;;;;20611358;28;20034;-58
2021/11/27 21:47:08;;;;;;;954.55;57.08;;;0.90;99.90;;;;;;20652749;28;20373;-57
2021/11/27 21:57:25;;;;;;;1057.00;48.67;;;0.90;99.90;;;;;;20653665;28;20038;-56
2021/11/27 22:07:48;;;;;;;626.15;29.75;;;0.90;99.90;;;;;;20651268;28;20116;-51
2021/11/27 22:18:03;;;;;;;648.90;32.55;;;0.90;99.90;;;;;;20593331;28;20050;-51
2021/11/27 22:28:28;;;;;;;468.40;20.95;;;0.80;99.90;;;;;;20573507;28;20039;-50
2021/11/27 22:38:44;;;;;;;314.00;16.10;;;0.70;99.90;;;;;;20585376;28;20038;-51
2021/11/27 22:49:08;;;;;;;122.65;7.05;;;0.70;99.90;;;;;;20584085;28;20038;-50
2021/11/27 22:59:23;;;;;;;402.85;20.02;;;0.60;99.90;;;;;;20640556;28;20188;-53
2021/11/27 23:09:46;;;;;;;315.10;15.63;;;0.60;99.90;;;;;;20661921;28;20105;-55
2021/11/27 23:30:31;;;;;;;89.70;4.15;;;0.50;99.90;;;;;;20661972;28;20372;-55
2021/11/27 23:40:47;;;;;;;84.70;4.75;;;0.40;99.90;;;;;;20589241;28;20039;-51
2021/11/27 23:51:12;;;;;;;17.73;0.57;;;0.40;99.90;;;;;;20580104;28;20559;-51
